Capitán FAP Renán Elías Olivera International Airport
SPSO : now visible

Airfield :











YOU CAN JOIN US ON...

 
LOGIN :

Register | Disclaimer

   EN    FR    IT 

 









Legend :    VFR   Marginal VFR   IFR   Intensive IFR   Very Intensive IFR
Visi :
Ceiling :
>= 8 km
>= 3000ft
5 to 8 km
1000 to 3000 ft
1500m to 5 km
500 to 1000 ft
800 to 1500m
200 to 500 ft
< 800m
< 200 ft
Symbols :   Thunderstorms  Fog  Heavy snow  Heavy precipitations  Wind > 20 kt






- Airport Elevation : 39 ft
- IATA code : PIO


SPSO - Capitán FAP Renán Elías Olivera International

CURRENT METAR :
  • 271200Z 22003KT 6000 BKN048 23/20 Q1012 RMK BR BIRD HAZARD RWY 22/04 TN22.7 PP000

EXPIRED METARs :
  • 271100Z 21004KT 9999 BKN046 23/20 Q1012 RMK BIRD HAZARD RWY 22/04 PP000
  • 271000Z 19005KT 9999 BKN046 23/20 Q1011 RMK PP000

TAF SPSO
Valid from the 27 at 12:00 until the 28 at 12:00 UTC


271100Z 2712/2812 21005KT 9999 BKN050 TX29/2719Z TN22/2811Z
FM271500 29008KT CAVOK
BECMG 2719/2721 22016KT
FM280400 21006KT 9999 BKN040



MET'MAP, your aeronautical weather chart ! - Copyright ORBIFLY December 2007 - Disclaimer

ORBIFLY MET'MAP TEAM :

Programming & Development : Alexandra Zaïnal
Concept & original design : Baudouin d'Aumeries
Assistance for programming : Marc-Olivier Méhu
Technical & hardware support : Manuel Goepfert

Contact : metmap@orbifly.com




SOURCES & CREDITS :

   NOAA       Earth
Advisory